Time;durP1;ratioP1;P1;durP2;ratioP2;P2;SDS_P1;SDS_P2;PMS_P1;PMS_P2;Temp;Humidity;BMP_temperature;BMP_pressure;BME280_temperature;BME280_humidity;BME280_pressure;Samples;Min_cycle;Max_cycle;Signal;HPM_P1;HPM_P2
2021/01/09 00:03:56;;;;;;;8.82;4.45;;;-3.70;99.90;;;;;;21064060;28;20602;-76
2021/01/09 00:13:57;;;;;;;7.30;3.85;;;-3.90;99.90;;;;;;21080458;28;20607;-77
2021/01/09 00:23:58;;;;;;;7.38;4.07;;;-3.80;99.90;;;;;;21060789;28;20035;-78
2021/01/09 00:33:59;;;;;;;7.70;3.50;;;-3.80;99.90;;;;;;20994226;22;20048;-82
2021/01/09 00:44:00;;;;;;;7.70;4.60;;;-3.80;99.90;;;;;;20963731;22;20159;-77
2021/01/09 00:54:04;;;;;;;9.23;3.92;;;-3.90;99.90;;;;;;20885681;28;20032;-75
2021/01/09 01:04:05;;;;;;;9.18;3.95;;;-3.90;99.90;;;;;;20884848;28;20051;-77
2021/01/09 01:14:09;;;;;;;7.00;3.90;;;-4.00;99.90;;;;;;20900545;28;20032;-76
2021/01/09 01:24:10;;;;;;;9.15;3.65;;;-4.10;99.90;;;;;;20900701;28;20490;-75
2021/01/09 01:34:11;;;;;;;5.97;3.20;;;-4.20;99.90;;;;;;20881734;28;20550;-76
2021/01/09 01:44:12;;;;;;;8.15;3.70;;;-4.30;99.90;;;;;;20882650;28;20454;-79
2021/01/09 01:54:13;;;;;;;6.90;3.55;;;-4.30;99.90;;;;;;20880435;28;20134;-77
2021/01/09 02:04:14;;;;;;;8.95;4.78;;;-4.30;99.90;;;;;;20867321;28;20034;-76
2021/01/09 02:14:23;;;;;;;7.13;3.38;;;-4.30;99.90;;;;;;20814348;28;20055;-77
2021/01/09 02:24:24;;;;;;;8.70;3.67;;;-4.40;99.90;;;;;;20816006;28;20044;-77
2021/01/09 02:34:38;;;;;;;7.45;4.50;;;-4.60;99.90;;;;;;20794617;28;20037;-76
2021/01/09 02:44:39;;;;;;;4.93;3.13;;;-5.00;99.90;;;;;;20816070;28;20040;-76
2021/01/09 02:54:40;;;;;;;6.78;3.42;;;-5.00;99.90;;;;;;20875932;28;20506;-76
2021/01/09 03:04:41;;;;;;;6.53;3.60;;;-4.90;99.90;;;;;;20890911;28;20033;-79
2021/01/09 03:14:42;;;;;;;5.70;3.80;;;-4.80;99.90;;;;;;20891512;28;20471;-78
2021/01/09 03:24:43;;;;;;;4.30;3.00;;;-4.70;99.90;;;;;;20954329;28;20056;-78
2021/01/09 03:34:43;;;;;;;9.50;3.55;;;-4.90;99.90;;;;;;20973452;28;20650;-78
2021/01/09 03:44:44;;;;;;;10.02;3.05;;;-4.80;99.90;;;;;;20968618;28;20582;-79
2021/01/09 03:54:45;;;;;;;6.53;3.40;;;-4.80;99.90;;;;;;20862423;28;20087;-76
2021/01/09 04:04:46;;;;;;;4.97;2.72;;;-4.80;99.90;;;;;;20854750;28;20029;-79
2021/01/09 04:14:47;;;;;;;6.32;2.95;;;-5.00;99.90;;;;;;20789792;28;20071;-79
2021/01/09 04:24:47;;;;;;;3.22;2.47;;;-5.00;99.90;;;;;;20905079;28;20106;-79
2021/01/09 04:34:49;;;;;;;4.70;2.83;;;-5.00;99.90;;;;;;20885049;28;20030;-78
2021/01/09 04:44:50;;;;;;;5.10;3.15;;;-5.00;99.90;;;;;;20859289;28;20029;-77
2021/01/09 04:54:53;;;;;;;9.02;3.70;;;-5.10;99.90;;;;;;20840531;28;20033;-78
2021/01/09 05:04:54;;;;;;;10.02;4.15;;;-5.10;99.90;;;;;;20902723;28;20086;-77
2021/01/09 05:14:56;;;;;;;10.43;5.20;;;-5.20;99.90;;;;;;20913007;28;20076;-78
2021/01/09 05:24:56;;;;;;;8.15;4.53;;;-5.20;99.90;;;;;;20901276;28;20037;-78
2021/01/09 05:34:57;;;;;;;11.60;5.53;;;-5.10;99.90;;;;;;20834919;28;20083;-77
2021/01/09 05:44:58;;;;;;;9.70;4.97;;;-5.10;99.90;;;;;;20834260;28;20366;-77
2021/01/09 05:54:59;;;;;;;10.88;5.28;;;-5.20;99.90;;;;;;20882896;28;20063;-77
2021/01/09 06:05:05;;;;;;;11.38;4.68;;;-5.30;99.90;;;;;;20815357;28;20037;-79
2021/01/09 06:15:07;;;;;;;13.38;5.75;;;-5.30;99.90;;;;;;20879830;28;20029;-78
2021/01/09 06:25:11;;;;;;;11.80;5.88;;;-5.30;99.90;;;;;;20819785;28;20411;-77
2021/01/09 06:35:12;;;;;;;13.25;6.25;;;-5.40;99.90;;;;;;20882481;22;20075;-77
2021/01/09 06:45:13;;;;;;;15.15;6.60;;;-5.40;99.90;;;;;;20910379;28;20032;-77
2021/01/09 06:55:14;;;;;;;14.10;6.65;;;-5.40;99.90;;;;;;20994449;28;20458;-78
2021/01/09 07:05:20;;;;;;;16.05;7.22;;;-5.40;99.90;;;;;;20993089;28;20028;-77
2021/01/09 07:15:22;;;;;;;33.80;13.15;;;-5.50;99.90;;;;;;20958957;28;20032;-77
2021/01/09 07:25:30;;;;;;;45.38;15.35;;;-5.40;99.90;;;;;;20992443;28;20035;-79
2021/01/09 07:35:31;;;;;;;32.95;13.88;;;-5.10;99.90;;;;;;20990438;28;20025;-76
2021/01/09 07:45:33;;;;;;;27.55;12.85;;;-4.90;99.90;;;;;;20978328;28;20170;-77
2021/01/09 07:55:45;;;;;;;29.05;12.75;;;-4.80;99.90;;;;;;20906162;28;20526;-76
2021/01/09 08:05:46;;;;;;;23.65;9.73;;;-4.80;99.90;;;;;;20906079;28;20075;-76
2021/01/09 08:15:47;;;;;;;28.20;11.68;;;-5.10;99.90;;;;;;20905883;28;20027;-75
2021/01/09 08:25:48;;;;;;;15.25;6.40;;;-4.60;99.90;;;;;;20907218;28;20032;-76
2021/01/09 08:35:52;;;;;;;16.20;6.57;;;-4.40;99.90;;;;;;20888261;28;20040;-77
2021/01/09 08:45:54;;;;;;;18.02;8.23;;;-3.70;99.90;;;;;;20921501;28;20056;-77
2021/01/09 08:56:01;;;;;;;18.50;8.23;;;-3.00;99.90;;;;;;20988068;28;20036;-78
2021/01/09 09:06:07;;;;;;;17.08;7.95;;;-1.70;99.90;;;;;;20979035;28;20038;-78
2021/01/09 09:16:19;;;;;;;16.55;8.20;;;-0.50;99.90;;;;;;20984943;28;20499;-78
2021/01/09 09:26:20;;;;;;;27.10;8.95;;;1.10;99.90;;;;;;20984990;28;20462;-77
2021/01/09 09:36:21;;;;;;;22.20;10.93;;;2.00;99.90;;;;;;20982477;28;20032;-77
2021/01/09 09:46:22;;;;;;;21.30;8.07;;;1.60;99.90;;;;;;20979510;28;20048;-77
2021/01/09 09:56:24;;;;;;;16.65;7.97;;;1.00;99.90;;;;;;20959112;28;20028;-77
2021/01/09 10:06:38;;;;;;;14.68;7.10;;;1.00;99.90;;;;;;20926908;28;20041;-76
2021/01/09 10:16:40;;;;;;;16.25;8.27;;;1.60;99.90;;;;;;20831188;28;20030;-78
2021/01/09 10:26:40;;;;;;;;;;;1.60;99.90;;;;;;20831067;28;20033;-77
2021/01/09 10:36:41;;;;;;;15.20;8.23;;;1.50;99.90;;;;;;20829842;28;19913;-77
2021/01/09 10:46:42;;;;;;;24.27;8.90;;;2.40;99.90;;;;;;20854368;28;20074;-78
2021/01/09 10:56:46;;;;;;;15.13;8.47;;;2.80;99.90;;;;;;20947446;28;20107;-78
2021/01/09 11:06:47;;;;;;;23.30;9.00;;;2.80;99.90;;;;;;20896285;28;20315;-77
2021/01/09 11:16:54;;;;;;;15.23;8.30;;;2.40;99.90;;;;;;20827417;28;20026;-77
2021/01/09 11:27:01;;;;;;;15.35;8.25;;;2.90;99.90;;;;;;20877079;28;20094;-78
2021/01/09 11:37:02;;;;;;;19.38;9.20;;;3.50;99.90;;;;;;20908162;28;20065;-77
2021/01/09 11:47:02;;;;;;;15.30;8.47;;;3.60;99.90;;;;;;20889105;28;20498;-77
2021/01/09 11:57:03;;;;;;;25.17;13.30;;;3.80;99.90;;;;;;20842371;28;20088;-77
2021/01/09 12:07:04;;;;;;;13.47;8.23;;;5.40;99.90;;;;;;20806890;28;20415;-76
2021/01/09 12:17:05;;;;;;;14.17;8.23;;;5.40;99.90;;;;;;20824022;28;20030;-76
2021/01/09 12:27:06;;;;;;;15.33;7.93;;;5.90;99.90;;;;;;20823933;28;20025;-78
2021/01/09 12:37:07;;;;;;;16.10;8.33;;;5.40;99.90;;;;;;20827079;28;20032;-77
2021/01/09 12:47:08;;;;;;;21.70;10.50;;;5.50;99.90;;;;;;20870908;28;20085;-77
2021/01/09 12:57:09;;;;;;;16.37;8.77;;;5.60;99.90;;;;;;21003329;28;20053;-77
2021/01/09 13:07:10;;;;;;;12.70;6.13;;;5.60;99.90;;;;;;20945978;28;20701;-77
2021/01/09 13:17:12;;;;;;;11.17;5.10;;;5.50;99.90;;;;;;20836686;28;20112;-76
2021/01/09 13:27:13;;;;;;;12.00;5.72;;;4.20;99.90;;;;;;20835748;28;20072;-77
2021/01/09 13:37:15;;;;;;;10.47;5.90;;;4.20;99.90;;;;;;20835091;28;20502;-77
2021/01/09 13:47:15;;;;;;;10.43;5.60;;;4.20;99.90;;;;;;20886720;28;20028;-76
2021/01/09 13:57:16;;;;;;;9.10;4.90;;;4.30;99.90;;;;;;20919328;28;20407;-79
2021/01/09 14:07:17;;;;;;;8.63;4.57;;;4.60;99.90;;;;;;20872141;28;20246;-76
2021/01/09 14:17:18;;;;;;;10.63;5.10;;;4.20;99.90;;;;;;20851284;28;20033;-76
2021/01/09 14:27:19;;;;;;;11.10;4.73;;;3.60;99.90;;;;;;20794095;28;20044;-78
2021/01/09 14:37:20;;;;;;;410.95;125.55;;;3.90;99.90;;;;;;20841922;28;20469;-76
2021/01/09 14:47:22;;;;;;;92.07;33.13;;;4.30;99.90;;;;;;20846360;28;20111;-77
2021/01/09 14:57:23;;;;;;;11.25;5.30;;;3.50;99.90;;;;;;20855113;28;20067;-76
2021/01/09 15:07:24;;;;;;;10.07;5.13;;;3.40;99.90;;;;;;20891727;28;20052;-77
2021/01/09 15:17:25;;;;;;;12.77;5.78;;;2.70;99.90;;;;;;20890578;28;20031;-79
2021/01/09 15:27:27;;;;;;;8.27;5.00;;;2.50;99.90;;;;;;20890741;28;20052;-78
2021/01/09 15:37:27;;;;;;;8.55;5.18;;;1.80;99.90;;;;;;20888583;28;20094;-77
2021/01/09 15:47:28;;;;;;;16.83;10.48;;;1.30;99.90;;;;;;20932419;28;20025;-80
2021/01/09 15:57:29;;;;;;;13.20;6.32;;;1.10;99.90;;;;;;20969780;28;20043;-77
2021/01/09 16:07:30;;;;;;;;;;;1.00;99.90;;;;;;20953555;28;20067;-78
2021/01/09 16:17:32;;;;;;;20.60;10.10;;;1.00;99.90;;;;;;20985639;28;19978;-77
2021/01/09 16:27:33;;;;;;;13.75;7.18;;;0.50;99.90;;;;;;20984883;28;20282;-76
2021/01/09 16:37:34;;;;;;;;;;;0.30;99.90;;;;;;20986306;28;20487;-77
2021/01/09 16:47:35;;;;;;;18.38;9.63;;;0.10;99.90;;;;;;20955374;28;19912;-77
2021/01/09 16:57:36;;;;;;;16.17;6.65;;;0.00;99.90;;;;;;20900167;28;20037;-78
2021/01/09 17:07:37;;;;;;;23.85;9.20;;;-0.10;99.90;;;;;;20881668;28;20384;-77
2021/01/09 17:17:40;;;;;;;18.35;8.30;;;-0.20;99.90;;;;;;20900175;28;20028;-77
2021/01/09 17:27:41;;;;;;;26.95;9.18;;;-0.30;99.90;;;;;;20869292;28;20040;-77
2021/01/09 17:37:42;;;;;;;19.73;8.00;;;-0.30;99.90;;;;;;20863786;28;20041;-77
2021/01/09 17:47:43;;;;;;;15.88;8.13;;;-0.40;99.90;;;;;;20881937;28;20044;-77
2021/01/09 17:57:44;;;;;;;17.40;7.70;;;-0.40;99.90;;;;;;20862989;28;20039;-77
2021/01/09 18:07:45;;;;;;;21.88;9.40;;;-0.50;99.90;;;;;;20837372;28;20135;-78
2021/01/09 18:17:46;;;;;;;25.85;10.15;;;-0.60;99.90;;;;;;20824709;28;20578;-77
2021/01/09 18:27:50;;;;;;;25.13;11.60;;;-0.50;99.90;;;;;;20877399;28;20044;-77
2021/01/09 18:38:03;;;;;;;17.05;8.02;;;-0.50;99.90;;;;;;20860964;28;20102;-77
2021/01/09 18:48:05;;;;;;;17.67;9.05;;;-0.70;99.90;;;;;;20865424;28;20031;-78
2021/01/09 18:58:18;;;;;;;22.58;9.23;;;-0.70;99.90;;;;;;20875686;28;20037;-77
2021/01/09 19:08:25;;;;;;;22.52;9.60;;;-0.70;99.90;;;;;;20891540;28;20120;-77
2021/01/09 19:18:27;;;;;;;18.95;9.43;;;-0.80;99.90;;;;;;20871467;28;20682;-78
2021/01/09 19:28:42;;;;;;;23.27;10.38;;;-0.70;99.90;;;;;;20871236;28;20567;-77
2021/01/09 19:38:46;;;;;;;22.02;9.40;;;-0.70;99.90;;;;;;20866597;28;20033;-77
2021/01/09 19:48:48;;;;;;;25.48;9.48;;;-0.70;99.90;;;;;;20906331;28;20553;-76
2021/01/09 19:58:49;;;;;;;26.52;11.70;;;-0.80;99.90;;;;;;20848742;28;20128;-77
2021/01/09 20:08:51;;;;;;;24.98;10.82;;;-0.90;99.90;;;;;;20900015;28;20430;-77
2021/01/09 20:18:56;;;;;;;24.92;11.27;;;-0.80;99.90;;;;;;20845797;28;20028;-79
2021/01/09 20:28:59;;;;;;;23.15;11.38;;;-1.00;99.90;;;;;;20862735;28;20670;-78
2021/01/09 20:39:02;;;;;;;100.22;42.40;;;-1.00;99.90;;;;;;20868727;28;20121;-78
2021/01/09 20:49:04;;;;;;;120.97;54.42;;;-1.00;99.90;;;;;;20867423;28;20036;-77
2021/01/09 20:59:05;;;;;;;25.23;11.05;;;-1.00;99.90;;;;;;20890388;28;20028;-77
2021/01/09 21:09:06;;;;;;;31.55;13.48;;;-1.20;99.90;;;;;;20842561;28;20033;-77
2021/01/09 21:19:07;;;;;;;35.92;13.15;;;-1.20;99.90;;;;;;20818543;28;20096;-77
2021/01/09 21:29:08;;;;;;;69.47;30.33;;;-1.20;99.90;;;;;;20816463;28;20030;-77
2021/01/09 21:39:09;;;;;;;40.00;20.58;;;-1.30;99.90;;;;;;20817128;28;20029;-77
2021/01/09 21:49:11;;;;;;;23.83;9.70;;;-1.30;99.90;;;;;;20862793;28;20124;-77
2021/01/09 21:59:12;;;;;;;23.88;10.75;;;-1.40;99.90;;;;;;20846842;28;20029;-77
2021/01/09 22:09:13;;;;;;;24.23;10.23;;;-1.30;99.90;;;;;;20910300;28;20036;-77
2021/01/09 22:19:14;;;;;;;21.70;10.05;;;-1.30;99.90;;;;;;20909246;28;20037;-77
2021/01/09 22:29:15;;;;;;;23.27;9.73;;;-1.20;99.90;;;;;;20892074;28;20048;-77
2021/01/09 22:39:17;;;;;;;20.40;9.90;;;-1.20;99.90;;;;;;20898207;28;20082;-77
2021/01/09 22:49:18;;;;;;;19.52;8.60;;;-1.20;99.90;;;;;;20924632;28;20746;-77
2021/01/09 22:59:21;;;;;;;17.10;7.68;;;-1.10;99.90;;;;;;20905422;28;20024;-76
2021/01/09 23:09:22;;;;;;;19.10;8.63;;;-1.00;99.90;;;;;;20903206;28;20025;-77
2021/01/09 23:19:23;;;;;;;17.70;9.48;;;-1.00;99.90;;;;;;20882970;28;20523;-77
2021/01/09 23:29:24;;;;;;;20.23;8.40;;;-1.00;99.90;;;;;;20898671;28;20072;-76
2021/01/09 23:39:25;;;;;;;17.80;8.60;;;-1.00;99.90;;;;;;20897513;28;20025;-76
2021/01/09 23:49:26;;;;;;;25.77;9.13;;;-1.00;99.90;;;;;;20935929;28;20112;-76
2021/01/09 23:59:27;;;;;;;20.73;9.57;;;-1.00;99.90;;;;;;20880644;28;20111;-77
